createdAt,value
2022-08-25T00:03:16.883Z,82
2022-08-25T00:08:16.989Z,82
2022-08-25T00:13:16.869Z,82
2022-08-25T00:18:20.176Z,82
2022-08-25T00:23:17.852Z,82
2022-08-25T00:28:16.880Z,83
2022-08-25T00:33:16.909Z,83
2022-08-25T00:38:17.114Z,84
2022-08-25T00:43:17.260Z,84
2022-08-25T00:48:16.379Z,84
2022-08-25T00:53:16.545Z,84
2022-08-25T00:58:16.623Z,85
2022-08-25T01:03:16.518Z,85
2022-08-25T01:08:16.664Z,85
2022-08-25T01:13:17.025Z,85
2022-08-25T01:18:17.109Z,86
2022-08-25T01:23:17.136Z,86
2022-08-25T01:28:17.271Z,86
2022-08-25T01:33:16.334Z,86
2022-08-25T01:38:17.539Z,87
2022-08-25T01:43:17.448Z,87
2022-08-25T01:48:16.419Z,87
2022-08-25T01:53:16.561Z,87
2022-08-25T01:58:16.857Z,88
2022-08-25T02:03:19.282Z,88
2022-08-25T02:08:16.766Z,88
2022-08-25T02:13:17.249Z,88
2022-08-25T02:18:16.458Z,89
2022-08-25T02:23:16.625Z,89
2022-08-25T02:28:16.773Z,89
2022-08-25T02:33:16.793Z,89
2022-08-25T02:38:16.734Z,89
2022-08-25T02:43:17.015Z,89
2022-08-25T02:48:16.588Z,89
2022-08-25T02:53:17.311Z,89
2022-08-25T02:58:16.532Z,89
2022-08-25T03:03:16.496Z,89
2022-08-25T03:08:17.283Z,90
2022-08-25T03:13:16.524Z,90
2022-08-25T03:18:17.302Z,90
2022-08-25T03:23:16.437Z,90
2022-08-25T03:28:16.696Z,90
2022-08-25T03:33:17.142Z,90
2022-08-25T03:38:17.315Z,90
2022-08-25T03:43:16.698Z,90
2022-08-25T03:48:16.856Z,91
2022-08-25T03:53:16.576Z,91
2022-08-25T03:58:16.902Z,91
2022-08-25T04:03:17.079Z,91
2022-08-25T04:08:19.189Z,91
2022-08-25T04:13:16.862Z,91
2022-08-25T04:18:16.946Z,91
2022-08-25T04:23:17.132Z,91
2022-08-25T04:28:16.468Z,91
2022-08-25T04:33:16.863Z,91
2022-08-25T04:38:17.112Z,91
2022-08-25T04:43:17.372Z,91
2022-08-25T04:48:17.681Z,92
2022-08-25T04:53:16.750Z,92
2022-08-25T04:58:17.212Z,92
2022-08-25T05:03:17.246Z,92
2022-08-25T05:08:17.284Z,92
2022-08-25T05:13:17.463Z,92
2022-08-25T05:18:16.678Z,92
2022-08-25T05:23:16.969Z,92
2022-08-25T05:28:17.119Z,92
2022-08-25T05:33:17.308Z,92
2022-08-25T05:38:16.940Z,91
2022-08-25T05:43:17.031Z,91
2022-08-25T05:48:17.113Z,90
2022-08-25T05:53:17.208Z,90
2022-08-25T05:58:17.276Z,89
2022-08-25T06:03:17.652Z,89
2022-08-25T06:08:16.762Z,88
2022-08-25T06:13:18.003Z,88
2022-08-25T06:18:17.123Z,88
2022-08-25T06:23:17.288Z,88
2022-08-25T06:28:17.394Z,88
2022-08-25T06:33:17.494Z,88
2022-08-25T06:38:16.791Z,89
2022-08-25T06:43:16.924Z,89
2022-08-25T06:48:17.232Z,90
2022-08-25T06:53:17.416Z,90
2022-08-25T06:58:22.698Z,90
2022-08-25T07:03:16.910Z,90
2022-08-25T07:08:17.096Z,90
2022-08-25T07:13:16.828Z,90
2022-08-25T07:18:17.463Z,90
2022-08-25T07:23:16.639Z,90
2022-08-25T07:28:16.965Z,90
2022-08-25T07:33:17.194Z,90
2022-08-25T07:38:21.065Z,90
2022-08-25T07:43:17.155Z,90
2022-08-25T07:48:18.544Z,89
2022-08-25T07:53:16.736Z,89
2022-08-25T07:58:16.865Z,89
2022-08-25T08:03:51.213Z,89
2022-08-25T08:08:19.093Z,89
2022-08-25T08:13:19.190Z,89
2022-08-25T08:18:18.566Z,88
2022-08-25T08:23:16.722Z,88
2022-08-25T08:28:16.971Z,89
2022-08-25T08:33:17.053Z,89
2022-08-25T08:38:27.396Z,88
2022-08-25T08:43:18.983Z,88
2022-08-25T08:48:17.046Z,88
2022-08-25T08:53:17.354Z,88
2022-08-25T08:58:17.725Z,87
2022-08-25T09:03:18.271Z,87
2022-08-25T09:08:20.763Z,87
2022-08-25T09:13:16.959Z,87
2022-08-25T09:18:17.441Z,86
2022-08-25T09:23:20.502Z,86
2022-08-25T09:28:16.943Z,86
2022-08-25T09:33:21.745Z,86
2022-08-25T09:38:16.811Z,86
2022-08-25T09:43:16.932Z,86
2022-08-25T09:48:19.957Z,85
2022-08-25T09:53:21.979Z,85
2022-08-25T09:58:17.407Z,84
2022-08-25T10:03:24.793Z,84
2022-08-25T10:08:24.956Z,82
2022-08-25T10:13:23.446Z,82
2022-08-25T10:18:17.433Z,80
2022-08-25T10:23:16.749Z,80
2022-08-25T10:28:16.918Z,77
2022-08-25T10:33:17.723Z,77
2022-08-25T10:38:22.098Z,75
2022-08-25T10:43:19.324Z,75
2022-08-25T10:48:17.043Z,72
2022-08-25T10:53:17.237Z,72
2022-08-25T10:58:17.422Z,71
2022-08-25T11:03:26.808Z,71
2022-08-25T11:08:17.428Z,69
2022-08-25T11:13:17.065Z,69
2022-08-25T11:18:17.265Z,68
2022-08-25T11:23:17.685Z,68
2022-08-25T11:28:17.576Z,66
2022-08-25T11:33:19.714Z,66
2022-08-25T11:38:17.031Z,67
2022-08-25T11:43:17.268Z,67
2022-08-25T11:48:18.354Z,67
2022-08-25T11:53:17.544Z,67
2022-08-25T11:58:17.020Z,64
2022-08-25T12:03:17.080Z,64
2022-08-25T12:08:17.179Z,62
2022-08-25T12:13:17.395Z,62
2022-08-25T12:18:19.023Z,60
2022-08-25T12:23:17.071Z,60
2022-08-25T12:28:19.581Z,61
2022-08-25T12:33:17.839Z,61
2022-08-25T12:38:17.299Z,61
2022-08-25T12:43:19.935Z,61
2022-08-25T12:48:19.113Z,61
2022-08-25T12:53:17.197Z,61
2022-08-25T12:58:18.163Z,60
2022-08-25T13:03:18.247Z,60
2022-08-25T13:08:17.572Z,59
2022-08-25T13:13:17.997Z,59
2022-08-25T13:18:17.250Z,60
2022-08-25T13:23:17.448Z,60
2022-08-25T13:28:19.491Z,58
2022-08-25T13:33:20.628Z,58
2022-08-25T13:38:17.642Z,58
2022-08-25T13:43:16.874Z,58
2022-08-25T13:48:26.229Z,58
2022-08-25T13:53:20.251Z,58
2022-08-25T13:58:44.225Z,55
2022-08-25T14:03:17.959Z,55
2022-08-25T14:08:26.147Z,55
2022-08-25T14:13:19.081Z,55
2022-08-25T14:18:19.268Z,57
2022-08-25T14:23:19.292Z,57
2022-08-25T14:28:18.461Z,57
2022-08-25T14:33:19.871Z,57
2022-08-25T14:38:17.463Z,56
2022-08-25T14:43:23.970Z,56
2022-08-25T14:48:17.687Z,56
2022-08-25T14:53:16.998Z,56
2022-08-25T14:58:26.671Z,56
2022-08-25T15:03:18.050Z,56
2022-08-25T15:08:17.059Z,55
2022-08-25T15:13:17.086Z,55
2022-08-25T15:18:17.806Z,56
2022-08-25T15:23:17.690Z,56
2022-08-25T15:28:17.640Z,55
2022-08-25T15:33:17.180Z,55
2022-08-25T15:38:17.239Z,55
2022-08-25T15:43:17.907Z,55
2022-08-25T15:48:17.676Z,56
2022-08-25T15:53:17.195Z,56
2022-08-25T15:58:17.744Z,56
2022-08-25T16:03:17.412Z,56
2022-08-25T16:08:19.966Z,55
2022-08-25T16:13:18.702Z,55
2022-08-25T16:18:17.906Z,55
2022-08-25T16:23:17.402Z,55
2022-08-25T16:28:17.757Z,56
2022-08-25T16:33:20.515Z,56
2022-08-25T16:38:17.514Z,56
2022-08-25T16:43:16.913Z,56
2022-08-25T16:48:17.966Z,56
2022-08-25T16:53:18.081Z,56
2022-08-25T16:58:17.221Z,57
2022-08-25T17:03:17.733Z,57
2022-08-25T17:08:17.239Z,57
2022-08-25T17:13:17.724Z,57
2022-08-25T17:18:18.033Z,58
2022-08-25T17:23:21.226Z,58
2022-08-25T17:28:17.836Z,59
2022-08-25T17:33:24.524Z,59
2022-08-25T17:38:17.819Z,59
2022-08-25T17:43:18.696Z,59
2022-08-25T17:48:17.723Z,60
2022-08-25T17:53:18.408Z,60
2022-08-25T17:58:17.136Z,61
2022-08-25T18:03:17.207Z,61
2022-08-25T18:08:19.060Z,61
2022-08-25T18:13:17.648Z,61
2022-08-25T18:18:17.645Z,66
2022-08-25T18:23:17.932Z,66
2022-08-25T18:28:17.527Z,69
2022-08-25T18:33:17.781Z,69
2022-08-25T18:38:21.292Z,71
2022-08-25T18:43:18.601Z,71
2022-08-25T18:48:19.581Z,73
2022-08-25T18:53:17.691Z,73
2022-08-25T18:58:19.675Z,74
2022-08-25T19:03:18.143Z,74
2022-08-25T19:08:21.955Z,75
2022-08-25T19:13:23.072Z,75
2022-08-25T19:18:17.435Z,75
2022-08-25T19:23:17.252Z,75
2022-08-25T19:28:17.490Z,77
2022-08-25T19:33:45.490Z,77
2022-08-25T19:38:35.659Z,77
2022-08-25T19:43:17.359Z,77
2022-08-25T19:48:17.493Z,78
2022-08-25T19:53:18.152Z,78
2022-08-25T19:58:17.997Z,79
2022-08-25T20:03:17.152Z,79
2022-08-25T20:08:30.244Z,80
2022-08-25T20:13:17.412Z,80
2022-08-25T20:18:17.553Z,82
2022-08-25T20:23:18.328Z,82
2022-08-25T20:28:19.310Z,83
2022-08-25T20:33:23.594Z,83
2022-08-25T20:38:18.011Z,82
2022-08-25T20:43:17.351Z,82
2022-08-25T20:48:17.517Z,82
2022-08-25T20:53:18.371Z,82
2022-08-25T20:58:17.795Z,82
2022-08-25T21:03:19.853Z,82
2022-08-25T21:08:17.389Z,83
2022-08-25T21:13:18.102Z,83
2022-08-25T21:18:17.615Z,83
2022-08-25T21:23:17.368Z,83
2022-08-25T21:28:21.195Z,83
2022-08-25T21:33:18.712Z,83
2022-08-25T21:38:17.996Z,84
2022-08-25T21:43:18.782Z,84
2022-08-25T21:48:18.031Z,85
2022-08-25T21:53:17.430Z,85
2022-08-25T21:58:17.757Z,85
2022-08-25T22:03:17.182Z,85
2022-08-25T22:08:19.643Z,85
2022-08-25T22:13:18.330Z,85
2022-08-25T22:18:17.526Z,85
2022-08-25T22:23:20.718Z,85
2022-08-25T22:28:18.030Z,86
2022-08-25T22:33:17.906Z,86
2022-08-25T22:38:17.672Z,84
2022-08-25T22:43:17.300Z,84
2022-08-25T22:48:17.439Z,83
2022-08-25T22:53:17.865Z,83
2022-08-25T22:58:17.309Z,82
2022-08-25T23:03:18.663Z,82
2022-08-25T23:08:41.104Z,82
2022-08-25T23:13:34.775Z,82
2022-08-25T23:18:22.651Z,83
2022-08-25T23:23:17.746Z,83
2022-08-25T23:28:18.433Z,83
2022-08-25T23:33:20.012Z,83
2022-08-25T23:38:18.057Z,83
2022-08-25T23:43:17.821Z,83
2022-08-25T23:48:18.954Z,83
2022-08-25T23:53:17.418Z,83
2022-08-25T23:58:18.034Z,84
